sensor_id;sensor_type;location;lat;lon;timestamp;P1;durP1;ratioP1;P2;durP2;ratioP2
25497;SDS011;13406;53.380;7.226;2023-07-13T00:02:00;7.50;;;1.70;;
25497;SDS011;13406;53.380;7.226;2023-07-13T00:04:26;5.30;;;1.93;;
25497;SDS011;13406;53.380;7.226;2023-07-13T00:06:51;4.07;;;1.67;;
25497;SDS011;13406;53.380;7.226;2023-07-13T00:09:18;3.33;;;1.60;;
25497;SDS011;13406;53.380;7.226;2023-07-13T00:11:44;4.90;;;1.67;;
25497;SDS011;13406;53.380;7.226;2023-07-13T00:14:12;5.70;;;1.90;;
25497;SDS011;13406;53.380;7.226;2023-07-13T00:16:39;4.70;;;1.80;;
25497;SDS011;13406;53.380;7.226;2023-07-13T00:19:08;9.10;;;1.73;;
25497;SDS011;13406;53.380;7.226;2023-07-13T00:21:35;5.60;;;1.87;;
25497;SDS011;13406;53.380;7.226;2023-07-13T00:24:00;6.57;;;1.63;;
25497;SDS011;13406;53.380;7.226;2023-07-13T00:26:26;3.37;;;1.47;;
25497;SDS011;13406;53.380;7.226;2023-07-13T00:28:52;9.53;;;2.20;;
25497;SDS011;13406;53.380;7.226;2023-07-13T00:31:17;4.70;;;1.57;;
25497;SDS011;13406;53.380;7.226;2023-07-13T00:33:43;10.40;;;2.13;;
25497;SDS011;13406;53.380;7.226;2023-07-13T00:36:09;9.07;;;2.63;;
25497;SDS011;13406;53.380;7.226;2023-07-13T00:38:35;8.73;;;1.97;;
25497;SDS011;13406;53.380;7.226;2023-07-13T00:41:01;9.17;;;2.30;;
25497;SDS011;13406;53.380;7.226;2023-07-13T00:43:28;7.23;;;2.60;;
25497;SDS011;13406;53.380;7.226;2023-07-13T00:48:54;8.30;;;2.23;;
25497;SDS011;13406;53.380;7.226;2023-07-13T00:51:24;6.03;;;2.00;;
25497;SDS011;13406;53.380;7.226;2023-07-13T00:53:53;7.57;;;2.20;;
25497;SDS011;13406;53.380;7.226;2023-07-13T00:56:21;6.50;;;1.90;;
25497;SDS011;13406;53.380;7.226;2023-07-13T00:58:47;5.93;;;2.47;;
25497;SDS011;13406;53.380;7.226;2023-07-13T01:01:13;7.30;;;2.00;;
25497;SDS011;13406;53.380;7.226;2023-07-13T01:03:39;5.87;;;2.70;;
25497;SDS011;13406;53.380;7.226;2023-07-13T01:06:05;5.70;;;2.00;;
25497;SDS011;13406;53.380;7.226;2023-07-13T01:08:31;10.33;;;3.03;;
25497;SDS011;13406;53.380;7.226;2023-07-13T01:10:57;7.90;;;2.50;;
25497;SDS011;13406;53.380;7.226;2023-07-13T01:13:23;5.30;;;2.13;;
25497;SDS011;13406;53.380;7.226;2023-07-13T01:15:49;9.40;;;2.20;;
25497;SDS011;13406;53.380;7.226;2023-07-13T01:18:18;5.13;;;2.07;;
25497;SDS011;13406;53.380;7.226;2023-07-13T01:20:59;8.97;;;2.50;;
25497;SDS011;13406;53.380;7.226;2023-07-13T01:23:27;4.37;;;2.00;;
25497;SDS011;13406;53.380;7.226;2023-07-13T01:25:53;7.90;;;1.97;;
25497;SDS011;13406;53.380;7.226;2023-07-13T01:28:20;5.00;;;2.10;;
25497;SDS011;13406;53.380;7.226;2023-07-13T01:30:46;8.10;;;2.67;;
25497;SDS011;13406;53.380;7.226;2023-07-13T01:33:13;7.33;;;2.50;;
25497;SDS011;13406;53.380;7.226;2023-07-13T01:35:43;7.23;;;2.90;;
25497;SDS011;13406;53.380;7.226;2023-07-13T01:38:10;10.00;;;2.70;;
25497;SDS011;13406;53.380;7.226;2023-07-13T01:40:38;10.63;;;3.10;;
25497;SDS011;13406;53.380;7.226;2023-07-13T01:43:04;7.77;;;2.20;;
25497;SDS011;13406;53.380;7.226;2023-07-13T01:45:30;9.40;;;3.00;;
25497;SDS011;13406;53.380;7.226;2023-07-13T01:47:56;5.70;;;1.97;;
25497;SDS011;13406;53.380;7.226;2023-07-13T01:50:23;7.33;;;2.60;;
25497;SDS011;13406;53.380;7.226;2023-07-13T01:52:48;6.70;;;2.47;;
25497;SDS011;13406;53.380;7.226;2023-07-13T01:55:14;9.83;;;2.53;;
25497;SDS011;13406;53.380;7.226;2023-07-13T01:57:39;11.50;;;2.50;;
25497;SDS011;13406;53.380;7.226;2023-07-13T02:00:06;9.23;;;2.60;;
25497;SDS011;13406;53.380;7.226;2023-07-13T02:02:33;12.40;;;2.63;;
25497;SDS011;13406;53.380;7.226;2023-07-13T02:04:59;7.53;;;2.50;;
25497;SDS011;13406;53.380;7.226;2023-07-13T02:07:24;8.10;;;2.63;;
25497;SDS011;13406;53.380;7.226;2023-07-13T02:09:49;8.57;;;3.10;;
25497;SDS011;13406;53.380;7.226;2023-07-13T02:12:15;7.73;;;2.70;;
25497;SDS011;13406;53.380;7.226;2023-07-13T02:14:40;9.47;;;2.97;;
25497;SDS011;13406;53.380;7.226;2023-07-13T02:17:06;8.30;;;2.30;;
25497;SDS011;13406;53.380;7.226;2023-07-13T02:19:31;11.93;;;2.60;;
25497;SDS011;13406;53.380;7.226;2023-07-13T02:21:57;12.90;;;2.70;;
25497;SDS011;13406;53.380;7.226;2023-07-13T02:24:22;11.40;;;3.10;;
25497;SDS011;13406;53.380;7.226;2023-07-13T02:26:47;10.50;;;3.30;;
25497;SDS011;13406;53.380;7.226;2023-07-13T02:29:13;11.17;;;3.30;;
25497;SDS011;13406;53.380;7.226;2023-07-13T02:31:39;10.47;;;3.30;;
25497;SDS011;13406;53.380;7.226;2023-07-13T02:34:04;7.73;;;2.60;;
25497;SDS011;13406;53.380;7.226;2023-07-13T02:36:30;14.80;;;3.27;;
25497;SDS011;13406;53.380;7.226;2023-07-13T02:38:57;9.73;;;3.30;;
25497;SDS011;13406;53.380;7.226;2023-07-13T02:41:25;8.13;;;2.30;;
25497;SDS011;13406;53.380;7.226;2023-07-13T02:43:51;7.33;;;2.77;;
25497;SDS011;13406;53.380;7.226;2023-07-13T02:46:16;10.27;;;3.03;;
25497;SDS011;13406;53.380;7.226;2023-07-13T02:48:42;7.63;;;2.47;;
25497;SDS011;13406;53.380;7.226;2023-07-13T02:51:07;9.00;;;2.87;;
25497;SDS011;13406;53.380;7.226;2023-07-13T02:53:33;7.33;;;2.90;;
25497;SDS011;13406;53.380;7.226;2023-07-13T02:56:00;7.00;;;2.37;;
25497;SDS011;13406;53.380;7.226;2023-07-13T02:58:25;9.90;;;2.77;;
25497;SDS011;13406;53.380;7.226;2023-07-13T03:00:51;9.73;;;2.50;;
25497;SDS011;13406;53.380;7.226;2023-07-13T03:03:16;10.27;;;2.80;;
25497;SDS011;13406;53.380;7.226;2023-07-13T03:05:43;8.53;;;3.27;;
25497;SDS011;13406;53.380;7.226;2023-07-13T03:08:09;9.10;;;2.90;;
25497;SDS011;13406;53.380;7.226;2023-07-13T03:10:36;9.27;;;2.80;;
25497;SDS011;13406;53.380;7.226;2023-07-13T03:13:01;10.60;;;2.60;;
25497;SDS011;13406;53.380;7.226;2023-07-13T03:15:27;7.00;;;2.30;;
25497;SDS011;13406;53.380;7.226;2023-07-13T03:17:52;8.33;;;2.80;;
25497;SDS011;13406;53.380;7.226;2023-07-13T03:20:18;9.57;;;2.83;;
25497;SDS011;13406;53.380;7.226;2023-07-13T03:22:43;11.00;;;3.07;;
25497;SDS011;13406;53.380;7.226;2023-07-13T03:25:09;10.90;;;2.90;;
25497;SDS011;13406;53.380;7.226;2023-07-13T03:27:35;5.93;;;2.00;;
25497;SDS011;13406;53.380;7.226;2023-07-13T03:30:01;8.53;;;2.70;;
25497;SDS011;13406;53.380;7.226;2023-07-13T03:32:27;7.00;;;2.93;;
25497;SDS011;13406;53.380;7.226;2023-07-13T03:34:53;6.63;;;2.40;;
25497;SDS011;13406;53.380;7.226;2023-07-13T03:37:18;10.00;;;2.93;;
25497;SDS011;13406;53.380;7.226;2023-07-13T03:39:44;8.03;;;3.03;;
25497;SDS011;13406;53.380;7.226;2023-07-13T03:42:09;8.67;;;3.37;;
25497;SDS011;13406;53.380;7.226;2023-07-13T03:44:34;11.80;;;3.20;;
25497;SDS011;13406;53.380;7.226;2023-07-13T03:47:00;10.80;;;3.17;;
25497;SDS011;13406;53.380;7.226;2023-07-13T03:49:26;9.00;;;2.77;;
25497;SDS011;13406;53.380;7.226;2023-07-13T03:51:51;11.50;;;2.83;;
25497;SDS011;13406;53.380;7.226;2023-07-13T03:54:17;9.10;;;3.10;;
25497;SDS011;13406;53.380;7.226;2023-07-13T03:56:42;10.37;;;4.00;;
25497;SDS011;13406;53.380;7.226;2023-07-13T03:59:08;8.90;;;2.80;;
25497;SDS011;13406;53.380;7.226;2023-07-13T04:01:33;8.00;;;2.83;;
25497;SDS011;13406;53.380;7.226;2023-07-13T04:03:59;7.20;;;2.20;;
25497;SDS011;13406;53.380;7.226;2023-07-13T04:06:28;8.57;;;2.47;;
25497;SDS011;13406;53.380;7.226;2023-07-13T04:08:57;14.83;;;3.37;;
25497;SDS011;13406;53.380;7.226;2023-07-13T04:11:25;7.80;;;2.57;;
25497;SDS011;13406;53.380;7.226;2023-07-13T04:13:52;6.30;;;2.40;;
25497;SDS011;13406;53.380;7.226;2023-07-13T04:16:18;13.53;;;3.27;;
25497;SDS011;13406;53.380;7.226;2023-07-13T04:18:45;6.23;;;2.23;;
25497;SDS011;13406;53.380;7.226;2023-07-13T04:21:11;15.50;;;3.60;;
25497;SDS011;13406;53.380;7.226;2023-07-13T04:23:37;11.60;;;2.30;;
25497;SDS011;13406;53.380;7.226;2023-07-13T04:26:03;8.00;;;2.30;;
25497;SDS011;13406;53.380;7.226;2023-07-13T04:28:29;7.03;;;2.37;;
25497;SDS011;13406;53.380;7.226;2023-07-13T04:30:55;12.00;;;2.70;;
25497;SDS011;13406;53.380;7.226;2023-07-13T04:33:21;8.10;;;2.40;;
25497;SDS011;13406;53.380;7.226;2023-07-13T04:35:47;7.37;;;2.50;;
25497;SDS011;13406;53.380;7.226;2023-07-13T04:38:14;14.47;;;3.57;;
25497;SDS011;13406;53.380;7.226;2023-07-13T04:40:42;12.00;;;3.50;;
25497;SDS011;13406;53.380;7.226;2023-07-13T04:43:10;12.40;;;3.10;;
25497;SDS011;13406;53.380;7.226;2023-07-13T04:45:36;12.40;;;3.63;;
25497;SDS011;13406;53.380;7.226;2023-07-13T04:48:02;12.37;;;2.90;;
25497;SDS011;13406;53.380;7.226;2023-07-13T04:50:27;11.23;;;2.90;;
25497;SDS011;13406;53.380;7.226;2023-07-13T04:52:53;14.43;;;3.70;;
25497;SDS011;13406;53.380;7.226;2023-07-13T04:55:19;11.70;;;3.30;;
25497;SDS011;13406;53.380;7.226;2023-07-13T04:57:45;10.33;;;2.80;;
25497;SDS011;13406;53.380;7.226;2023-07-13T05:00:12;13.73;;;3.50;;
25497;SDS011;13406;53.380;7.226;2023-07-13T05:02:38;13.90;;;3.77;;
25497;SDS011;13406;53.380;7.226;2023-07-13T05:05:05;11.50;;;3.23;;
25497;SDS011;13406;53.380;7.226;2023-07-13T05:07:31;7.60;;;2.93;;
25497;SDS011;13406;53.380;7.226;2023-07-13T05:09:58;11.87;;;3.20;;
25497;SDS011;13406;53.380;7.226;2023-07-13T05:12:24;10.80;;;3.10;;
25497;SDS011;13406;53.380;7.226;2023-07-13T05:14:50;13.20;;;3.50;;
25497;SDS011;13406;53.380;7.226;2023-07-13T05:17:15;11.63;;;3.17;;
25497;SDS011;13406;53.380;7.226;2023-07-13T05:19:41;12.63;;;4.70;;
25497;SDS011;13406;53.380;7.226;2023-07-13T05:22:06;12.13;;;3.57;;
25497;SDS011;13406;53.380;7.226;2023-07-13T05:24:32;12.67;;;2.80;;
25497;SDS011;13406;53.380;7.226;2023-07-13T05:26:57;12.80;;;3.83;;
25497;SDS011;13406;53.380;7.226;2023-07-13T05:29:22;8.53;;;3.80;;
25497;SDS011;13406;53.380;7.226;2023-07-13T05:31:48;12.60;;;3.23;;
25497;SDS011;13406;53.380;7.226;2023-07-13T05:34:14;12.13;;;3.80;;
25497;SDS011;13406;53.380;7.226;2023-07-13T05:36:40;10.77;;;4.00;;
25497;SDS011;13406;53.380;7.226;2023-07-13T05:39:05;11.63;;;3.67;;
25497;SDS011;13406;53.380;7.226;2023-07-13T05:41:31;16.63;;;4.23;;
25497;SDS011;13406;53.380;7.226;2023-07-13T05:43:57;10.87;;;3.00;;
25497;SDS011;13406;53.380;7.226;2023-07-13T05:46:22;11.83;;;3.47;;
25497;SDS011;13406;53.380;7.226;2023-07-13T05:48:47;13.03;;;3.87;;
25497;SDS011;13406;53.380;7.226;2023-07-13T05:51:13;7.30;;;3.03;;
25497;SDS011;13406;53.380;7.226;2023-07-13T05:53:39;14.13;;;4.07;;
25497;SDS011;13406;53.380;7.226;2023-07-13T05:56:04;10.60;;;3.23;;
25497;SDS011;13406;53.380;7.226;2023-07-13T05:58:30;8.97;;;2.77;;
25497;SDS011;13406;53.380;7.226;2023-07-13T06:00:59;15.03;;;3.03;;
25497;SDS011;13406;53.380;7.226;2023-07-13T06:03:30;17.73;;;3.77;;
25497;SDS011;13406;53.380;7.226;2023-07-13T06:05:55;11.40;;;2.80;;
25497;SDS011;13406;53.380;7.226;2023-07-13T06:08:21;10.03;;;3.07;;
25497;SDS011;13406;53.380;7.226;2023-07-13T06:10:46;9.60;;;3.60;;
25497;SDS011;13406;53.380;7.226;2023-07-13T06:13:12;10.63;;;3.20;;
25497;SDS011;13406;53.380;7.226;2023-07-13T06:15:37;10.00;;;3.47;;
25497;SDS011;13406;53.380;7.226;2023-07-13T06:18:03;16.30;;;3.53;;
25497;SDS011;13406;53.380;7.226;2023-07-13T06:20:28;9.70;;;2.60;;
25497;SDS011;13406;53.380;7.226;2023-07-13T06:22:54;7.73;;;2.83;;
25497;SDS011;13406;53.380;7.226;2023-07-13T06:25:20;9.63;;;3.17;;
25497;SDS011;13406;53.380;7.226;2023-07-13T06:27:46;8.20;;;2.90;;
25497;SDS011;13406;53.380;7.226;2023-07-13T06:30:11;7.90;;;3.07;;
25497;SDS011;13406;53.380;7.226;2023-07-13T06:32:37;8.85;;;2.90;;
25497;SDS011;13406;53.380;7.226;2023-07-13T06:35:02;10.43;;;2.97;;
25497;SDS011;13406;53.380;7.226;2023-07-13T06:37:28;10.93;;;3.67;;
25497;SDS011;13406;53.380;7.226;2023-07-13T06:39:54;12.73;;;3.90;;
25497;SDS011;13406;53.380;7.226;2023-07-13T06:42:19;10.60;;;2.80;;
25497;SDS011;13406;53.380;7.226;2023-07-13T06:44:45;7.37;;;2.87;;
25497;SDS011;13406;53.380;7.226;2023-07-13T06:47:10;11.30;;;3.07;;
25497;SDS011;13406;53.380;7.226;2023-07-13T06:49:36;8.87;;;2.70;;
25497;SDS011;13406;53.380;7.226;2023-07-13T06:52:01;9.90;;;2.60;;
25497;SDS011;13406;53.380;7.226;2023-07-13T06:54:27;9.10;;;3.00;;
25497;SDS011;13406;53.380;7.226;2023-07-13T06:56:52;13.30;;;2.70;;
25497;SDS011;13406;53.380;7.226;2023-07-13T06:59:18;6.05;;;2.40;;
25497;SDS011;13406;53.380;7.226;2023-07-13T07:01:44;9.50;;;2.60;;
25497;SDS011;13406;53.380;7.226;2023-07-13T07:04:10;7.77;;;2.47;;
25497;SDS011;13406;53.380;7.226;2023-07-13T07:06:35;7.93;;;2.40;;
25497;SDS011;13406;53.380;7.226;2023-07-13T07:09:00;9.63;;;3.10;;
25497;SDS011;13406;53.380;7.226;2023-07-13T07:11:26;5.53;;;2.07;;
25497;SDS011;13406;53.380;7.226;2023-07-13T07:13:52;8.43;;;2.43;;
25497;SDS011;13406;53.380;7.226;2023-07-13T07:16:18;6.07;;;1.83;;
25497;SDS011;13406;53.380;7.226;2023-07-13T07:18:45;10.87;;;2.47;;
25497;SDS011;13406;53.380;7.226;2023-07-13T07:21:11;5.73;;;2.07;;
25497;SDS011;13406;53.380;7.226;2023-07-13T07:23:37;3.60;;;1.40;;
25497;SDS011;13406;53.380;7.226;2023-07-13T07:26:02;3.30;;;1.37;;
25497;SDS011;13406;53.380;7.226;2023-07-13T07:28:28;6.00;;;1.47;;
25497;SDS011;13406;53.380;7.226;2023-07-13T07:30:55;6.87;;;2.10;;
25497;SDS011;13406;53.380;7.226;2023-07-13T07:33:22;6.03;;;1.73;;
25497;SDS011;13406;53.380;7.226;2023-07-13T07:35:48;4.83;;;1.83;;
25497;SDS011;13406;53.380;7.226;2023-07-13T07:38:13;5.47;;;1.50;;
25497;SDS011;13406;53.380;7.226;2023-07-13T07:40:39;5.60;;;1.50;;
25497;SDS011;13406;53.380;7.226;2023-07-13T07:43:06;4.73;;;1.67;;
25497;SDS011;13406;53.380;7.226;2023-07-13T07:45:32;5.60;;;1.30;;
25497;SDS011;13406;53.380;7.226;2023-07-13T07:47:58;3.40;;;1.40;;
25497;SDS011;13406;53.380;7.226;2023-07-13T07:50:24;3.67;;;1.73;;
25497;SDS011;13406;53.380;7.226;2023-07-13T07:52:50;5.20;;;1.70;;
25497;SDS011;13406;53.380;7.226;2023-07-13T07:55:16;4.10;;;1.63;;
25497;SDS011;13406;53.380;7.226;2023-07-13T07:57:42;3.50;;;1.20;;
25497;SDS011;13406;53.380;7.226;2023-07-13T08:00:07;5.00;;;1.40;;
25497;SDS011;13406;53.380;7.226;2023-07-13T08:02:33;6.07;;;1.50;;
25497;SDS011;13406;53.380;7.226;2023-07-13T08:04:58;8.57;;;2.00;;
25497;SDS011;13406;53.380;7.226;2023-07-13T08:07:24;3.27;;;1.20;;
25497;SDS011;13406;53.380;7.226;2023-07-13T08:09:53;5.50;;;1.80;;
25497;SDS011;13406;53.380;7.226;2023-07-13T08:12:19;5.40;;;1.57;;
25497;SDS011;13406;53.380;7.226;2023-07-13T08:14:44;6.70;;;1.67;;
25497;SDS011;13406;53.380;7.226;2023-07-13T08:17:10;3.27;;;1.40;;
25497;SDS011;13406;53.380;7.226;2023-07-13T08:19:35;7.87;;;1.43;;
25497;SDS011;13406;53.380;7.226;2023-07-13T08:22:00;4.90;;;1.30;;
25497;SDS011;13406;53.380;7.226;2023-07-13T08:24:26;3.93;;;1.30;;
25497;SDS011;13406;53.380;7.226;2023-07-13T08:26:51;5.40;;;1.60;;
25497;SDS011;13406;53.380;7.226;2023-07-13T08:29:17;6.80;;;1.63;;
25497;SDS011;13406;53.380;7.226;2023-07-13T08:31:43;4.27;;;1.63;;
25497;SDS011;13406;53.380;7.226;2023-07-13T08:34:08;6.70;;;1.53;;
25497;SDS011;13406;53.380;7.226;2023-07-13T08:36:34;4.80;;;1.70;;
25497;SDS011;13406;53.380;7.226;2023-07-13T08:38:59;3.83;;;1.53;;
25497;SDS011;13406;53.380;7.226;2023-07-13T08:41:25;4.40;;;1.60;;
25497;SDS011;13406;53.380;7.226;2023-07-13T08:43:51;5.30;;;1.80;;
25497;SDS011;13406;53.380;7.226;2023-07-13T08:46:35;2.77;;;1.00;;
25497;SDS011;13406;53.380;7.226;2023-07-13T08:49:13;3.40;;;1.40;;
25497;SDS011;13406;53.380;7.226;2023-07-13T08:51:45;4.93;;;1.40;;
25497;SDS011;13406;53.380;7.226;2023-07-13T08:54:20;4.30;;;1.43;;
25497;SDS011;13406;53.380;7.226;2023-07-13T08:56:53;4.30;;;1.60;;
25497;SDS011;13406;53.380;7.226;2023-07-13T08:59:21;6.23;;;2.00;;
25497;SDS011;13406;53.380;7.226;2023-07-13T09:04:38;7.53;;;2.10;;
25497;SDS011;13406;53.380;7.226;2023-07-13T09:10:35;6.00;;;1.93;;
25497;SDS011;13406;53.380;7.226;2023-07-13T09:15:31;3.50;;;1.63;;
25497;SDS011;13406;53.380;7.226;2023-07-13T09:20:51;3.40;;;1.30;;
25497;SDS011;13406;53.380;7.226;2023-07-13T09:23:24;5.77;;;1.63;;
25497;SDS011;13406;53.380;7.226;2023-07-13T09:25:58;5.30;;;1.53;;
25497;SDS011;13406;53.380;7.226;2023-07-13T09:28:28;3.20;;;1.13;;
25497;SDS011;13406;53.380;7.226;2023-07-13T09:31:07;3.20;;;1.50;;
25497;SDS011;13406;53.380;7.226;2023-07-13T09:33:38;4.37;;;1.47;;
25497;SDS011;13406;53.380;7.226;2023-07-13T09:36:20;3.10;;;1.20;;
25497;SDS011;13406;53.380;7.226;2023-07-13T09:38:48;3.53;;;1.23;;
25497;SDS011;13406;53.380;7.226;2023-07-13T09:41:21;1.47;;;1.10;;
25497;SDS011;13406;53.380;7.226;2023-07-13T09:44:01;4.30;;;1.37;;
25497;SDS011;13406;53.380;7.226;2023-07-13T09:46:27;6.60;;;2.57;;
25497;SDS011;13406;53.380;7.226;2023-07-13T09:48:52;4.67;;;1.70;;
25497;SDS011;13406;53.380;7.226;2023-07-13T09:51:18;4.43;;;1.60;;
25497;SDS011;13406;53.380;7.226;2023-07-13T09:53:43;4.70;;;1.60;;
25497;SDS011;13406;53.380;7.226;2023-07-13T09:56:19;2.40;;;1.03;;
25497;SDS011;13406;53.380;7.226;2023-07-13T09:59:03;4.47;;;1.80;;
25497;SDS011;13406;53.380;7.226;2023-07-13T10:01:36;4.60;;;1.60;;
25497;SDS011;13406;53.380;7.226;2023-07-13T10:04:12;2.80;;;1.20;;
25497;SDS011;13406;53.380;7.226;2023-07-13T10:06:41;12.73;;;2.37;;
25497;SDS011;13406;53.380;7.226;2023-07-13T10:09:08;4.07;;;1.20;;
25497;SDS011;13406;53.380;7.226;2023-07-13T10:11:34;5.10;;;2.00;;
25497;SDS011;13406;53.380;7.226;2023-07-13T10:14:03;3.10;;;1.23;;
25497;SDS011;13406;53.380;7.226;2023-07-13T10:16:37;3.70;;;1.70;;
25497;SDS011;13406;53.380;7.226;2023-07-13T10:19:12;3.30;;;1.70;;
25497;SDS011;13406;53.380;7.226;2023-07-13T10:21:56;3.03;;;1.43;;
25497;SDS011;13406;53.380;7.226;2023-07-13T10:24:25;3.57;;;1.63;;
25497;SDS011;13406;53.380;7.226;2023-07-13T10:27:08;5.10;;;2.00;;
25497;SDS011;13406;53.380;7.226;2023-07-13T10:29:42;3.27;;;1.60;;
25497;SDS011;13406;53.380;7.226;2023-07-13T10:32:12;3.40;;;1.70;;
25497;SDS011;13406;53.380;7.226;2023-07-13T10:34:38;3.20;;;1.20;;
25497;SDS011;13406;53.380;7.226;2023-07-13T10:37:05;3.83;;;1.40;;
25497;SDS011;13406;53.380;7.226;2023-07-13T10:39:41;4.60;;;1.30;;
25497;SDS011;13406;53.380;7.226;2023-07-13T10:42:08;2.60;;;1.27;;
25497;SDS011;13406;53.380;7.226;2023-07-13T10:44:40;3.93;;;1.20;;
25497;SDS011;13406;53.380;7.226;2023-07-13T10:47:07;1.90;;;1.00;;
25497;SDS011;13406;53.380;7.226;2023-07-13T10:49:38;3.93;;;1.47;;
25497;SDS011;13406;53.380;7.226;2023-07-13T10:52:20;6.27;;;1.30;;
25497;SDS011;13406;53.380;7.226;2023-07-13T10:58:11;6.97;;;2.30;;
25497;SDS011;13406;53.380;7.226;2023-07-13T11:00:49;8.93;;;2.40;;
25497;SDS011;13406;53.380;7.226;2023-07-13T11:03:30;5.70;;;1.67;;
25497;SDS011;13406;53.380;7.226;2023-07-13T11:06:11;3.53;;;1.57;;
25497;SDS011;13406;53.380;7.226;2023-07-13T11:18:51;4.23;;;1.47;;
25497;SDS011;13406;53.380;7.226;2023-07-13T11:21:28;2.33;;;1.23;;
25497;SDS011;13406;53.380;7.226;2023-07-13T11:24:14;2.70;;;1.03;;
25497;SDS011;13406;53.380;7.226;2023-07-13T11:26:42;2.37;;;1.10;;
25497;SDS011;13406;53.380;7.226;2023-07-13T11:31:40;1.40;;;1.00;;
25497;SDS011;13406;53.380;7.226;2023-07-13T11:34:15;1.77;;;1.10;;
25497;SDS011;13406;53.380;7.226;2023-07-13T11:36:43;1.77;;;1.03;;
25497;SDS011;13406;53.380;7.226;2023-07-13T11:44:22;2.00;;;1.57;;
25497;SDS011;13406;53.380;7.226;2023-07-13T11:46:50;3.03;;;1.30;;
25497;SDS011;13406;53.380;7.226;2023-07-13T11:49:21;3.50;;;1.40;;
25497;SDS011;13406;53.380;7.226;2023-07-13T11:51:47;3.93;;;1.63;;
25497;SDS011;13406;53.380;7.226;2023-07-13T11:57:33;2.07;;;1.37;;
25497;SDS011;13406;53.380;7.226;2023-07-13T12:00:09;7.00;;;2.00;;
25497;SDS011;13406;53.380;7.226;2023-07-13T12:02:39;2.90;;;1.50;;
25497;SDS011;13406;53.380;7.226;2023-07-13T12:05:10;2.50;;;1.50;;
25497;SDS011;13406;53.380;7.226;2023-07-13T12:07:38;3.87;;;1.40;;
25497;SDS011;13406;53.380;7.226;2023-07-13T12:12:52;3.30;;;1.00;;
25497;SDS011;13406;53.380;7.226;2023-07-13T12:15:19;2.20;;;0.90;;
25497;SDS011;13406;53.380;7.226;2023-07-13T12:17:47;4.10;;;0.87;;
25497;SDS011;13406;53.380;7.226;2023-07-13T12:20:26;1.80;;;0.90;;
25497;SDS011;13406;53.380;7.226;2023-07-13T12:22:58;5.40;;;1.50;;
25497;SDS011;13406;53.380;7.226;2023-07-13T12:25:24;1.30;;;0.90;;
25497;SDS011;13406;53.380;7.226;2023-07-13T12:27:50;4.33;;;1.40;;
25497;SDS011;13406;53.380;7.226;2023-07-13T12:30:29;2.53;;;1.33;;
25497;SDS011;13406;53.380;7.226;2023-07-13T12:33:10;1.77;;;1.07;;
25497;SDS011;13406;53.380;7.226;2023-07-13T12:35:41;5.00;;;1.30;;
25497;SDS011;13406;53.380;7.226;2023-07-13T12:38:11;5.13;;;1.53;;
25497;SDS011;13406;53.380;7.226;2023-07-13T12:40:37;3.13;;;1.40;;
25497;SDS011;13406;53.380;7.226;2023-07-13T12:43:05;2.30;;;1.10;;
25497;SDS011;13406;53.380;7.226;2023-07-13T12:45:36;3.80;;;1.23;;
25497;SDS011;13406;53.380;7.226;2023-07-13T12:48:03;3.43;;;1.43;;
25497;SDS011;13406;53.380;7.226;2023-07-13T12:50:36;4.93;;;1.03;;
25497;SDS011;13406;53.380;7.226;2023-07-13T12:53:06;3.03;;;1.20;;
25497;SDS011;13406;53.380;7.226;2023-07-13T12:55:43;6.77;;;1.13;;
25497;SDS011;13406;53.380;7.226;2023-07-13T13:01:09;4.93;;;1.33;;
25497;SDS011;13406;53.380;7.226;2023-07-13T13:03:44;3.20;;;1.30;;
25497;SDS011;13406;53.380;7.226;2023-07-13T13:08:40;5.50;;;1.90;;
25497;SDS011;13406;53.380;7.226;2023-07-13T13:11:07;4.20;;;1.17;;
25497;SDS011;13406;53.380;7.226;2023-07-13T13:13:34;4.07;;;1.27;;
25497;SDS011;13406;53.380;7.226;2023-07-13T13:16:10;3.93;;;1.33;;
25497;SDS011;13406;53.380;7.226;2023-07-13T13:18:39;4.40;;;1.53;;
25497;SDS011;13406;53.380;7.226;2023-07-13T13:21:05;3.70;;;1.43;;
25497;SDS011;13406;53.380;7.226;2023-07-13T13:23:30;3.50;;;1.37;;
25497;SDS011;13406;53.380;7.226;2023-07-13T13:25:56;7.00;;;1.80;;
25497;SDS011;13406;53.380;7.226;2023-07-13T13:28:22;6.00;;;1.37;;
25497;SDS011;13406;53.380;7.226;2023-07-13T13:30:48;4.83;;;1.37;;
25497;SDS011;13406;53.380;7.226;2023-07-13T13:33:16;2.90;;;1.40;;
25497;SDS011;13406;53.380;7.226;2023-07-13T13:35:44;5.07;;;1.30;;
25497;SDS011;13406;53.380;7.226;2023-07-13T13:38:13;5.30;;;1.48;;
25497;SDS011;13406;53.380;7.226;2023-07-13T13:40:43;4.43;;;1.73;;
25497;SDS011;13406;53.380;7.226;2023-07-13T13:43:14;5.60;;;1.97;;
25497;SDS011;13406;53.380;7.226;2023-07-13T13:45:44;7.00;;;3.00;;
25497;SDS011;13406;53.380;7.226;2023-07-13T13:48:14;6.37;;;1.70;;
25497;SDS011;13406;53.380;7.226;2023-07-13T13:50:42;6.20;;;1.47;;
25497;SDS011;13406;53.380;7.226;2023-07-13T13:53:12;4.63;;;1.30;;
25497;SDS011;13406;53.380;7.226;2023-07-13T13:55:40;8.00;;;1.20;;
25497;SDS011;13406;53.380;7.226;2023-07-13T13:58:07;5.70;;;1.43;;
25497;SDS011;13406;53.380;7.226;2023-07-13T14:00:35;9.77;;;1.67;;
25497;SDS011;13406;53.380;7.226;2023-07-13T14:03:01;4.50;;;1.47;;
25497;SDS011;13406;53.380;7.226;2023-07-13T14:05:27;7.33;;;1.40;;
25497;SDS011;13406;53.380;7.226;2023-07-13T14:07:53;6.43;;;2.00;;
25497;SDS011;13406;53.380;7.226;2023-07-13T14:10:19;3.20;;;1.50;;
25497;SDS011;13406;53.380;7.226;2023-07-13T14:12:47;3.67;;;1.40;;
25497;SDS011;13406;53.380;7.226;2023-07-13T14:15:25;5.73;;;1.80;;
25497;SDS011;13406;53.380;7.226;2023-07-13T14:17:52;4.67;;;1.53;;
25497;SDS011;13406;53.380;7.226;2023-07-13T14:20:19;6.47;;;1.77;;
25497;SDS011;13406;53.380;7.226;2023-07-13T14:22:47;4.87;;;1.50;;
25497;SDS011;13406;53.380;7.226;2023-07-13T14:25:14;4.53;;;1.47;;
25497;SDS011;13406;53.380;7.226;2023-07-13T14:27:40;4.87;;;1.83;;
25497;SDS011;13406;53.380;7.226;2023-07-13T14:30:14;6.10;;;1.87;;
25497;SDS011;13406;53.380;7.226;2023-07-13T14:32:40;5.03;;;1.60;;
25497;SDS011;13406;53.380;7.226;2023-07-13T14:35:07;3.73;;;1.60;;
25497;SDS011;13406;53.380;7.226;2023-07-13T14:37:36;7.23;;;1.83;;
25497;SDS011;13406;53.380;7.226;2023-07-13T14:40:02;5.10;;;1.80;;
25497;SDS011;13406;53.380;7.226;2023-07-13T14:42:30;4.27;;;1.40;;
25497;SDS011;13406;53.380;7.226;2023-07-13T14:44:55;2.97;;;1.37;;
25497;SDS011;13406;53.380;7.226;2023-07-13T14:47:20;6.17;;;1.60;;
25497;SDS011;13406;53.380;7.226;2023-07-13T14:49:46;7.27;;;1.83;;
25497;SDS011;13406;53.380;7.226;2023-07-13T14:52:17;6.23;;;1.70;;
25497;SDS011;13406;53.380;7.226;2023-07-13T14:54:45;5.53;;;1.73;;
25497;SDS011;13406;53.380;7.226;2023-07-13T14:57:12;8.07;;;2.50;;
25497;SDS011;13406;53.380;7.226;2023-07-13T14:59:38;5.40;;;1.87;;
25497;SDS011;13406;53.380;7.226;2023-07-13T15:04:58;4.27;;;1.10;;
25497;SDS011;13406;53.380;7.226;2023-07-13T15:07:24;5.43;;;1.73;;
25497;SDS011;13406;53.380;7.226;2023-07-13T15:09:50;7.20;;;1.77;;
25497;SDS011;13406;53.380;7.226;2023-07-13T15:12:17;5.33;;;2.03;;
25497;SDS011;13406;53.380;7.226;2023-07-13T15:14:42;5.90;;;2.00;;
25497;SDS011;13406;53.380;7.226;2023-07-13T15:17:28;4.40;;;1.70;;
25497;SDS011;13406;53.380;7.226;2023-07-13T15:19:59;3.63;;;1.60;;
25497;SDS011;13406;53.380;7.226;2023-07-13T15:22:25;4.87;;;1.93;;
25497;SDS011;13406;53.380;7.226;2023-07-13T15:24:50;6.20;;;1.90;;
25497;SDS011;13406;53.380;7.226;2023-07-13T15:27:16;5.00;;;1.40;;
25497;SDS011;13406;53.380;7.226;2023-07-13T15:29:42;4.77;;;1.43;;
25497;SDS011;13406;53.380;7.226;2023-07-13T15:32:11;4.63;;;1.60;;
25497;SDS011;13406;53.380;7.226;2023-07-13T15:34:38;3.20;;;1.47;;
25497;SDS011;13406;53.380;7.226;2023-07-13T15:37:07;6.50;;;2.00;;
25497;SDS011;13406;53.380;7.226;2023-07-13T15:39:38;3.93;;;1.50;;